Time;durP1;ratioP1;P1;durP2;ratioP2;P2;SDS_P1;SDS_P2;PMS_P1;PMS_P2;Temp;Humidity;BMP_temperature;BMP_pressure;BME280_temperature;BME280_humidity;BME280_pressure;Samples;Min_cycle;Max_cycle;Signal;HPM_P1;HPM_P2
2023/01/07 00:01:07;;;;;;;8.73;6.05;;;8.10;99.90;;;;;;5069112;28;20071;-42
2023/01/07 00:03:33;;;;;;;8.77;5.95;;;8.20;99.90;;;;;;5062305;28;20162;-44
2023/01/07 00:06:00;;;;;;;8.25;5.88;;;8.20;99.90;;;;;;5070100;28;20600;-43
2023/01/07 00:08:29;;;;;;;9.68;5.90;;;8.20;99.90;;;;;;5060458;28;20497;-46
2023/01/07 00:10:55;;;;;;;9.43;6.53;;;8.20;99.90;;;;;;5063963;28;20029;-42
2023/01/07 00:13:21;;;;;;;8.85;6.40;;;8.20;99.90;;;;;;5069472;28;20044;-42
2023/01/07 00:15:46;;;;;;;11.80;6.05;;;8.20;99.90;;;;;;5066644;28;20125;-42
2023/01/07 00:18:12;;;;;;;9.88;6.07;;;8.10;99.90;;;;;;5055944;28;20363;-43
2023/01/07 00:20:37;;;;;;;8.43;6.13;;;8.20;99.90;;;;;;5039477;28;20081;-43
2023/01/07 00:23:03;;;;;;;8.43;6.05;;;8.20;99.90;;;;;;5047637;28;20024;-43
2023/01/07 00:25:29;;;;;;;7.45;5.47;;;8.20;99.90;;;;;;5042150;28;20047;-43
2023/01/07 00:27:54;;;;;;;7.63;5.18;;;8.30;99.90;;;;;;5046202;28;20489;-43
2023/01/07 00:30:20;;;;;;;9.70;5.68;;;8.30;99.90;;;;;;5043506;28;20029;-43
2023/01/07 00:32:58;;;;;;;7.15;5.28;;;8.40;99.90;;;;;;5044140;28;20056;-44
2023/01/07 00:35:24;;;;;;;12.55;5.82;;;8.40;99.90;;;;;;5048781;28;20059;-43
2023/01/07 00:37:52;;;;;;;9.45;5.57;;;8.40;99.90;;;;;;5047757;28;20510;-43
2023/01/07 00:40:18;;;;;;;7.53;5.50;;;8.50;99.90;;;;;;5050486;28;20022;-43
2023/01/07 00:42:53;;;;;;;6.03;5.05;;;8.40;99.90;;;;;;5053081;28;20120;-44
2023/01/07 00:45:23;;;;;;;7.15;4.78;;;8.50;99.90;;;;;;5066763;28;20023;-43
2023/01/07 00:47:52;;;;;;;4.90;4.22;;;8.60;99.90;;;;;;5064101;28;20297;-43
2023/01/07 00:50:19;;;;;;;6.68;4.65;;;8.60;99.90;;;;;;5066942;28;20493;-42
2023/01/07 00:52:44;;;;;;;6.75;4.57;;;8.70;99.90;;;;;;5070634;28;20024;-43
2023/01/07 00:55:10;;;;;;;6.25;4.95;;;8.70;99.90;;;;;;5063894;28;20540;-43
2023/01/07 00:57:36;;;;;;;6.80;4.72;;;8.70;99.90;;;;;;5062338;28;20025;-43
2023/01/07 01:00:01;;;;;;;5.82;4.18;;;8.80;99.90;;;;;;5070736;28;20085;-43
2023/01/07 01:02:27;;;;;;;5.63;4.22;;;8.80;99.90;;;;;;5069008;28;20021;-43
2023/01/07 01:04:53;;;;;;;4.53;3.80;;;8.80;99.90;;;;;;5069059;28;20021;-43
2023/01/07 01:07:18;;;;;;;4.35;3.75;;;8.80;99.90;;;;;;5071006;28;20052;-42
2023/01/07 01:09:44;;;;;;;5.22;4.13;;;8.80;99.90;;;;;;5070359;28;20039;-42
2023/01/07 01:12:10;;;;;;;3.88;3.40;;;8.80;99.90;;;;;;5069772;28;20448;-42
2023/01/07 01:14:35;;;;;;;6.18;4.40;;;8.80;99.90;;;;;;5069053;28;20393;-43
2023/01/07 01:17:01;;;;;;;4.88;3.72;;;8.80;99.90;;;;;;5070237;28;20057;-42
2023/01/07 01:19:26;;;;;;;6.28;3.45;;;8.80;99.90;;;;;;5070358;28;20021;-42
2023/01/07 01:21:52;;;;;;;6.55;3.50;;;8.90;99.90;;;;;;5069777;28;20025;-42
2023/01/07 01:24:18;;;;;;;3.47;3.05;;;8.90;99.90;;;;;;5065380;28;20025;-43
2023/01/07 01:26:44;;;;;;;3.65;3.22;;;8.90;99.90;;;;;;5059836;28;20386;-43
2023/01/07 01:29:09;;;;;;;3.67;3.00;;;9.00;99.90;;;;;;5068759;28;20024;-42
2023/01/07 01:31:35;;;;;;;5.07;2.97;;;9.00;99.90;;;;;;5070075;28;20600;-42
2023/01/07 01:34:00;;;;;;;3.33;3.03;;;9.00;99.90;;;;;;5068395;28;20122;-42
2023/01/07 01:36:26;;;;;;;4.18;3.28;;;9.10;99.90;;;;;;5070394;28;20486;-43
2023/01/07 01:38:52;;;;;;;4.25;2.83;;;9.10;99.90;;;;;;5068501;28;20105;-44
2023/01/07 01:41:18;;;;;;;3.22;2.72;;;9.10;99.90;;;;;;5068308;28;20021;-43
2023/01/07 01:43:45;;;;;;;3.15;2.60;;;9.10;99.90;;;;;;5069392;28;20098;-46
2023/01/07 01:46:34;;;;;;;3.33;2.58;;;9.20;99.90;;;;;;5068514;28;20112;-44
2023/01/07 01:49:21;;;;;;;3.50;2.85;;;9.20;99.90;;;;;;5068439;28;20035;-43
2023/01/07 01:52:00;;;;;;;2.38;2.15;;;9.20;99.90;;;;;;5067847;28;20045;-44
2023/01/07 01:54:27;;;;;;;3.78;2.78;;;9.20;99.90;;;;;;5063496;28;20527;-44
2023/01/07 01:56:56;;;;;;;4.93;2.60;;;9.30;99.90;;;;;;5059756;28;20027;-43
2023/01/07 01:59:26;;;;;;;2.60;2.40;;;9.30;99.90;;;;;;5069783;28;20027;-44
2023/01/07 02:01:52;;;;;;;4.75;2.40;;;9.30;99.90;;;;;;5069170;28;20135;-43
2023/01/07 02:04:21;;;;;;;2.90;2.30;;;9.40;99.90;;;;;;5069367;28;20020;-43
2023/01/07 02:06:53;;;;;;;7.45;2.33;;;9.40;99.90;;;;;;5068250;28;20031;-43
2023/01/07 02:09:19;;;;;;;2.88;2.30;;;9.40;99.90;;;;;;5069216;28;20024;-42
2023/01/07 02:12:03;;;;;;;4.28;2.55;;;9.40;99.90;;;;;;5068746;28;20040;-43
2023/01/07 02:14:34;;;;;;;3.38;2.38;;;9.40;99.90;;;;;;5069147;28;20017;-43
2023/01/07 02:17:14;;;;;;;5.03;2.45;;;9.40;99.90;;;;;;5069529;28;20120;-43
2023/01/07 02:20:06;;;;;;;2.75;2.45;;;9.40;99.90;;;;;;5068069;28;20385;-43
2023/01/07 02:22:50;;;;;;;2.85;2.53;;;9.40;99.90;;;;;;5067419;28;20077;-43
2023/01/07 02:25:40;;;;;;;2.67;2.10;;;9.40;99.90;;;;;;5062214;28;20024;-43
2023/01/07 02:28:09;;;;;;;3.97;2.40;;;9.40;99.90;;;;;;5057498;28;20012;-42
2023/01/07 02:31:10;;;;;;;8.05;2.28;;;9.30;99.90;;;;;;5069198;28;20025;-42
2023/01/07 02:33:47;;;;;;;2.72;2.40;;;9.30;99.90;;;;;;5046932;28;20111;-44
2023/01/07 02:36:40;;;;;;;3.58;2.80;;;9.20;99.90;;;;;;5067975;28;20036;-46
2023/01/07 02:39:23;;;;;;;5.53;2.78;;;9.20;99.90;;;;;;5068853;28;20028;-43
2023/01/07 02:41:58;;;;;;;4.47;3.72;;;9.10;99.90;;;;;;5067105;28;20446;-43
2023/01/07 02:44:34;;;;;;;4.00;2.95;;;9.20;99.90;;;;;;5067893;28;20078;-44
2023/01/07 02:47:17;;;;;;;5.05;2.97;;;9.20;99.90;;;;;;5067811;28;20032;-44
2023/01/07 02:49:45;;;;;;;4.13;2.92;;;9.20;99.90;;;;;;5068724;28;20067;-44
2023/01/07 02:52:27;;;;;;;4.35;3.00;;;9.20;99.90;;;;;;5050591;28;20481;-44
2023/01/07 02:55:13;;;;;;;4.28;3.30;;;9.20;99.90;;;;;;5061933;28;20071;-43
2023/01/07 02:58:05;;;;;;;5.38;3.78;;;9.10;99.90;;;;;;5060724;28;20025;-44
2023/01/07 03:01:04;;;;;;;5.32;4.25;;;9.10;99.90;;;;;;5067773;28;20391;-43
2023/01/07 03:03:57;;;;;;;4.53;3.88;;;9.10;99.90;;;;;;5068249;28;20021;-43
2023/01/07 03:06:45;;;;;;;5.00;3.72;;;9.10;99.90;;;;;;5069083;28;20433;-43
2023/01/07 03:09:40;;;;;;;6.78;3.85;;;9.20;99.90;;;;;;5071958;28;20247;-43
2023/01/07 03:12:38;;;;;;;9.32;3.75;;;9.20;99.90;;;;;;5071433;28;20089;-43
2023/01/07 03:15:12;;;;;;;5.35;3.92;;;9.20;99.90;;;;;;5068979;28;20048;-44
2023/01/07 03:17:51;;;;;;;3.97;3.10;;;9.20;99.90;;;;;;5071429;28;20047;-43
2023/01/07 03:20:21;;;;;;;4.68;3.80;;;9.20;99.90;;;;;;5073096;28;20078;-43
2023/01/07 03:22:48;;;;;;;3.70;3.08;;;9.20;99.90;;;;;;5072362;28;20017;-44
2023/01/07 03:25:16;;;;;;;4.95;3.35;;;9.20;99.90;;;;;;5066993;28;20020;-45
2023/01/07 03:27:45;;;;;;;5.45;3.63;;;9.20;99.90;;;;;;5063270;28;20021;-44
2023/01/07 03:30:14;;;;;;;6.10;4.13;;;9.20;99.90;;;;;;5072761;28;20085;-43
2023/01/07 03:33:00;;;;;;;5.55;3.90;;;9.20;99.90;;;;;;5070743;28;20529;-43
2023/01/07 03:35:29;;;;;;;5.85;4.25;;;9.20;99.90;;;;;;5072454;28;20021;-43
2023/01/07 03:37:57;;;;;;;7.80;4.80;;;9.10;99.90;;;;;;5070659;28;20036;-43
2023/01/07 03:40:23;;;;;;;4.40;3.53;;;9.10;99.90;;;;;;5070587;28;20146;-44
2023/01/07 03:42:48;;;;;;;5.57;4.07;;;9.10;99.90;;;;;;5070365;28;20044;-43
2023/01/07 03:45:19;;;;;;;7.53;3.88;;;9.10;99.90;;;;;;5072178;28;20520;-43
2023/01/07 03:47:47;;;;;;;5.32;3.38;;;9.10;99.90;;;;;;5067797;28;20017;-44
2023/01/07 03:50:14;;;;;;;4.68;3.33;;;9.10;99.90;;;;;;5063657;28;20025;-43
2023/01/07 03:52:40;;;;;;;6.90;4.40;;;9.10;99.90;;;;;;5071557;28;20111;-43
2023/01/07 03:55:06;;;;;;;6.32;3.95;;;9.20;99.90;;;;;;5071755;28;20128;-43
2023/01/07 03:57:32;;;;;;;6.25;3.58;;;9.20;99.90;;;;;;5071730;28;20545;-43
2023/01/07 03:59:58;;;;;;;4.07;3.15;;;9.10;99.90;;;;;;5071984;28;20462;-43
2023/01/07 04:02:25;;;;;;;4.85;3.40;;;9.10;99.90;;;;;;5071263;28;20024;-43
2023/01/07 04:04:51;;;;;;;4.43;3.20;;;9.20;99.90;;;;;;5071951;28;20025;-43
2023/01/07 04:07:17;;;;;;;4.88;3.30;;;9.20;99.90;;;;;;5072343;28;20407;-43
2023/01/07 04:09:45;;;;;;;5.65;3.38;;;9.20;99.90;;;;;;5071276;28;20070;-47
2023/01/07 04:12:12;;;;;;;4.40;3.20;;;9.20;99.90;;;;;;5069747;28;20123;-45
2023/01/07 04:14:38;;;;;;;5.78;3.50;;;9.20;99.90;;;;;;5071879;28;20437;-42
2023/01/07 04:17:04;;;;;;;4.22;3.20;;;9.10;99.90;;;;;;5071189;28;20056;-42
2023/01/07 04:19:30;;;;;;;4.07;3.47;;;9.20;99.90;;;;;;5060042;28;20025;-44
2023/01/07 04:21:55;;;;;;;4.03;3.25;;;9.10;99.90;;;;;;5069663;28;20103;-46
2023/01/07 04:24:20;;;;;;;5.38;3.25;;;9.10;99.90;;;;;;5071829;28;20032;-42
2023/01/07 04:26:46;;;;;;;3.83;3.05;;;9.10;99.90;;;;;;5071175;28;20024;-43
2023/01/07 04:29:12;;;;;;;3.85;2.83;;;9.10;99.90;;;;;;5071349;28;20556;-43
2023/01/07 04:31:38;;;;;;;4.45;3.20;;;9.20;99.90;;;;;;5070156;28;20031;-42
2023/01/07 04:34:04;;;;;;;4.20;3.30;;;9.20;99.90;;;;;;5070814;28;20210;-43
2023/01/07 04:36:29;;;;;;;3.90;2.65;;;9.20;99.90;;;;;;5071425;28;20055;-42
2023/01/07 04:38:55;;;;;;;3.38;2.95;;;9.10;99.90;;;;;;5071002;28;20103;-43
2023/01/07 04:41:21;;;;;;;3.15;2.83;;;9.10;99.90;;;;;;5070906;28;20028;-43
2023/01/07 04:43:46;;;;;;;3.65;2.92;;;9.10;99.90;;;;;;5070880;28;20074;-43
2023/01/07 04:46:12;;;;;;;3.95;2.90;;;9.10;99.90;;;;;;5070163;28;20539;-42
2023/01/07 04:48:38;;;;;;;3.15;2.70;;;9.10;99.90;;;;;;5065886;28;20028;-43
2023/01/07 04:51:04;;;;;;;4.80;2.88;;;9.10;99.90;;;;;;5064919;28;20105;-42
2023/01/07 04:53:30;;;;;;;3.08;2.75;;;9.00;99.90;;;;;;5069115;28;20036;-42
2023/01/07 04:55:55;;;;;;;5.00;3.17;;;9.10;99.90;;;;;;5070830;28;20021;-43
2023/01/07 04:58:21;;;;;;;4.03;2.65;;;9.10;99.90;;;;;;5070937;28;20025;-42
2023/01/07 05:00:48;;;;;;;3.70;2.85;;;9.10;99.90;;;;;;5070864;28;20067;-43
2023/01/07 05:03:14;;;;;;;6.22;2.80;;;9.00;99.90;;;;;;5070155;28;20116;-48
2023/01/07 05:05:39;;;;;;;2.72;2.20;;;9.00;99.90;;;;;;5069642;28;20429;-43
2023/01/07 05:08:05;;;;;;;4.47;2.50;;;9.00;99.90;;;;;;5069541;28;20024;-42
2023/01/07 05:10:31;;;;;;;3.10;2.50;;;8.90;99.90;;;;;;5069103;28;20059;-43
2023/01/07 05:12:57;;;;;;;5.30;2.60;;;9.00;99.90;;;;;;5070337;28;20397;-43
2023/01/07 05:15:23;;;;;;;3.70;2.83;;;8.90;99.90;;;;;;5070422;28;20417;-43
2023/01/07 05:17:48;;;;;;;3.83;3.10;;;8.90;99.90;;;;;;5067308;28;20533;-42
2023/01/07 05:20:14;;;;;;;5.00;2.53;;;8.90;99.90;;;;;;5061883;28;20028;-43
2023/01/07 05:22:40;;;;;;;3.97;2.80;;;9.00;99.90;;;;;;5068374;28;20021;-44
2023/01/07 05:25:06;;;;;;;3.63;2.85;;;8.90;99.90;;;;;;5070033;28;20052;-43
2023/01/07 05:27:31;;;;;;;4.43;2.97;;;8.90;99.90;;;;;;5070184;28;20020;-43
2023/01/07 05:29:57;;;;;;;6.10;4.00;;;8.90;99.90;;;;;;5069459;28;20469;-43
2023/01/07 05:32:23;;;;;;;6.43;4.38;;;8.90;99.90;;;;;;5069617;28;20398;-42
2023/01/07 05:34:49;;;;;;;7.72;4.22;;;8.90;99.90;;;;;;5068720;28;20498;-43
2023/01/07 05:37:14;;;;;;;7.53;3.63;;;8.90;99.90;;;;;;5068485;28;20457;-42
2023/01/07 05:39:40;;;;;;;5.82;4.22;;;8.90;99.90;;;;;;5068824;28;20078;-42
2023/01/07 05:42:06;;;;;;;5.38;3.67;;;8.90;99.90;;;;;;5069326;28;20025;-42
2023/01/07 05:44:31;;;;;;;7.03;3.88;;;8.80;99.90;;;;;;5069817;28;20031;-42
2023/01/07 05:46:57;;;;;;;7.32;4.82;;;8.80;99.90;;;;;;5069697;28;20029;-43
2023/01/07 05:49:23;;;;;;;4.90;4.38;;;8.80;99.90;;;;;;5058359;28;20013;-42
2023/01/07 05:51:49;;;;;;;5.25;3.88;;;8.70;99.90;;;;;;5028685;28;20035;-43
2023/01/07 05:54:14;;;;;;;5.78;3.97;;;8.70;99.90;;;;;;5030019;28;20417;-42
2023/01/07 05:56:40;;;;;;;5.18;3.50;;;8.70;99.90;;;;;;5028703;28;20053;-43
2023/01/07 05:59:05;;;;;;;6.55;3.65;;;8.70;99.90;;;;;;5029660;28;20033;-47
2023/01/07 06:01:31;;;;;;;6.22;4.13;;;8.60;99.90;;;;;;5029764;28;20079;-42
2023/01/07 06:03:57;;;;;;;5.40;4.28;;;8.70;99.90;;;;;;5029239;28;20479;-42
2023/01/07 06:06:24;;;;;;;5.78;4.03;;;8.70;99.90;;;;;;5029538;28;20060;-43
2023/01/07 06:08:50;;;;;;;5.32;3.72;;;8.80;99.90;;;;;;5028330;28;20083;-42
2023/01/07 06:11:16;;;;;;;5.60;3.95;;;8.80;99.90;;;;;;5027830;28;20037;-45
2023/01/07 06:13:41;;;;;;;8.38;4.30;;;8.80;99.90;;;;;;5029030;28;20033;-43
2023/01/07 06:16:13;;;;;;;4.45;3.60;;;8.90;99.90;;;;;;5029480;28;20025;-43
2023/01/07 06:18:40;;;;;;;4.57;4.00;;;9.00;99.90;;;;;;5049565;28;20040;-44
2023/01/07 06:21:06;;;;;;;6.72;3.70;;;9.00;99.90;;;;;;5063761;28;20351;-43
2023/01/07 06:23:32;;;;;;;6.93;4.63;;;9.10;99.90;;;;;;5068670;28;20028;-43
2023/01/07 06:25:58;;;;;;;7.18;4.72;;;9.20;99.90;;;;;;5069147;28;20020;-43
2023/01/07 06:28:24;;;;;;;8.63;4.90;;;9.20;99.90;;;;;;5067913;28;20029;-43
2023/01/07 06:30:50;;;;;;;4.70;4.20;;;9.20;99.90;;;;;;5069396;28;20055;-43
2023/01/07 06:33:16;;;;;;;11.35;4.43;;;9.20;99.90;;;;;;5068637;28;20059;-42
2023/01/07 06:35:43;;;;;;;6.10;4.15;;;9.20;99.90;;;;;;5065502;28;20497;-43
2023/01/07 06:38:08;;;;;;;8.07;4.60;;;9.20;99.90;;;;;;5048669;28;20104;-43
2023/01/07 06:40:34;;;;;;;5.50;4.07;;;9.30;99.90;;;;;;5048326;28;20107;-43
2023/01/07 06:43:00;;;;;;;5.60;4.10;;;9.30;99.90;;;;;;5047115;28;20066;-42
2023/01/07 06:45:26;;;;;;;5.60;4.00;;;9.30;99.90;;;;;;5051388;28;20398;-43
2023/01/07 06:47:51;;;;;;;6.28;3.88;;;9.30;99.90;;;;;;5048386;28;20483;-43
2023/01/07 06:50:17;;;;;;;6.30;3.72;;;9.30;99.90;;;;;;5048821;28;20047;-42
2023/01/07 06:52:42;;;;;;;5.68;4.10;;;9.30;99.90;;;;;;5047695;28;20025;-43
2023/01/07 06:55:09;;;;;;;5.13;3.63;;;9.30;99.90;;;;;;5048420;28;20029;-43
2023/01/07 06:57:34;;;;;;;6.50;3.38;;;9.30;99.90;;;;;;5046718;28;20104;-44
2023/01/07 07:00:00;;;;;;;8.45;3.70;;;9.30;99.90;;;;;;5047380;28;20451;-43
2023/01/07 07:02:27;;;;;;;7.10;4.63;;;9.30;99.90;;;;;;5047983;28;20021;-43
2023/01/07 07:04:53;;;;;;;5.72;3.85;;;9.30;99.90;;;;;;5048522;28;20386;-43
2023/01/07 07:07:19;;;;;;;3.65;3.20;;;9.30;99.90;;;;;;5048343;28;20025;-43
2023/01/07 07:09:45;;;;;;;4.75;3.63;;;9.30;99.90;;;;;;5048382;28;20107;-43
2023/01/07 07:12:13;;;;;;;5.55;3.42;;;9.20;99.90;;;;;;5047395;28;20052;-44
2023/01/07 07:14:39;;;;;;;5.32;3.67;;;9.20;99.90;;;;;;5058324;28;20044;-43
2023/01/07 07:17:05;;;;;;;4.47;3.50;;;9.20;99.90;;;;;;5051370;28;20422;-43
2023/01/07 07:19:31;;;;;;;3.83;2.95;;;9.20;99.90;;;;;;5049430;28;20033;-44
2023/01/07 07:22:05;;;;;;;4.05;3.42;;;9.20;99.90;;;;;;5046684;28;20021;-43
2023/01/07 07:24:31;;;;;;;4.90;3.75;;;9.20;99.90;;;;;;5045636;28;20031;-43
2023/01/07 07:26:58;;;;;;;7.10;4.80;;;9.20;99.90;;;;;;5046830;28;20021;-43
2023/01/07 07:29:24;;;;;;;4.53;3.80;;;9.30;99.90;;;;;;5045981;28;20044;-43
2023/01/07 07:31:53;;;;;;;4.82;3.47;;;9.30;99.90;;;;;;5046681;28;20551;-44
2023/01/07 07:34:19;;;;;;;5.93;3.67;;;9.30;99.90;;;;;;5048499;28;20022;-43
2023/01/07 07:36:45;;;;;;;5.20;3.92;;;9.30;99.90;;;;;;5047157;28;20033;-43
2023/01/07 07:39:11;;;;;;;6.93;3.40;;;9.30;99.90;;;;;;5048215;28;20052;-44
2023/01/07 07:41:36;;;;;;;4.05;3.25;;;9.30;99.90;;;;;;5048088;28;20556;-43
2023/01/07 07:44:02;;;;;;;4.38;3.58;;;9.30;99.90;;;;;;5047928;28;20032;-43
2023/01/07 07:46:28;;;;;;;4.22;3.58;;;9.30;99.90;;;;;;5056949;28;20036;-44
2023/01/07 07:48:53;;;;;;;6.03;3.50;;;9.30;99.90;;;;;;5059283;28;20029;-43
2023/01/07 07:51:20;;;;;;;4.32;3.30;;;9.30;99.90;;;;;;5068152;28;20025;-44
2023/01/07 07:53:45;;;;;;;5.43;3.45;;;9.20;99.90;;;;;;5059957;28;20036;-49
2023/01/07 07:56:11;;;;;;;4.82;3.72;;;9.30;99.90;;;;;;5050410;28;20414;-44
2023/01/07 07:58:36;;;;;;;4.60;3.92;;;9.30;99.90;;;;;;5051917;28;20021;-44
2023/01/07 08:01:02;;;;;;;5.03;3.90;;;9.30;99.90;;;;;;5051374;28;20025;-44
2023/01/07 08:03:28;;;;;;;5.70;3.80;;;9.30;99.90;;;;;;5050995;28;20059;-45
2023/01/07 08:05:53;;;;;;;4.72;3.38;;;9.30;99.90;;;;;;5050329;28;20025;-43
2023/01/07 08:08:19;;;;;;;6.32;4.05;;;9.40;99.90;;;;;;5050148;28;20390;-44
2023/01/07 08:10:45;;;;;;;5.60;4.28;;;9.40;99.90;;;;;;5051040;28;20086;-44
2023/01/07 08:13:10;;;;;;;4.18;3.75;;;9.40;99.90;;;;;;5050585;28;20025;-44
2023/01/07 08:15:36;;;;;;;5.18;3.60;;;9.50;99.90;;;;;;5052991;28;20032;-43
2023/01/07 08:18:04;;;;;;;4.90;3.40;;;9.50;99.90;;;;;;5063409;28;20374;-43
2023/01/07 08:20:30;;;;;;;4.88;3.40;;;9.50;99.90;;;;;;5071532;28;20036;-43
2023/01/07 08:23:00;;;;;;;4.55;3.30;;;9.50;99.90;;;;;;5069793;28;20017;-44
2023/01/07 08:25:27;;;;;;;4.03;3.08;;;9.60;99.90;;;;;;5071247;28;20029;-44
2023/01/07 08:27:57;;;;;;;4.82;3.25;;;9.60;99.90;;;;;;5071231;28;20157;-43
2023/01/07 08:30:23;;;;;;;3.20;2.78;;;9.70;99.90;;;;;;5070611;28;20017;-43
2023/01/07 08:32:49;;;;;;;3.85;2.85;;;9.70;99.90;;;;;;5069853;28;20020;-43
2023/01/07 08:35:15;;;;;;;5.32;2.70;;;9.80;99.90;;;;;;5070244;28;20462;-43
2023/01/07 08:37:42;;;;;;;4.10;2.83;;;9.70;99.90;;;;;;5070159;28;20580;-44
2023/01/07 08:40:09;;;;;;;5.40;2.47;;;9.70;99.90;;;;;;5069427;28;20025;-44
2023/01/07 08:42:35;;;;;;;3.08;2.47;;;9.70;99.90;;;;;;5070192;28;20021;-44
2023/01/07 08:45:01;;;;;;;2.65;2.00;;;9.70;99.90;;;;;;5069447;28;20547;-44
2023/01/07 08:47:27;;;;;;;3.67;2.42;;;9.80;99.90;;;;;;5060027;28;20474;-43
2023/01/07 08:49:53;;;;;;;4.60;2.30;;;9.80;99.90;;;;;;5069231;28;20032;-44
2023/01/07 08:52:20;;;;;;;4.40;2.55;;;9.80;99.90;;;;;;5070215;28;20066;-43
2023/01/07 08:54:47;;;;;;;4.18;2.35;;;9.90;99.90;;;;;;5070717;28;20059;-43
2023/01/07 08:57:13;;;;;;;3.28;2.10;;;9.90;99.90;;;;;;5069959;28;20032;-44
2023/01/07 08:59:39;;;;;;;4.35;2.65;;;10.10;99.90;;;;;;5068643;28;20077;-43
2023/01/07 09:02:11;;;;;;;3.42;1.83;;;10.10;99.90;;;;;;5068261;28;20035;-44
2023/01/07 09:04:37;;;;;;;4.35;2.10;;;10.20;99.90;;;;;;5069118;28;20409;-43
2023/01/07 09:07:03;;;;;;;2.60;1.98;;;10.10;99.90;;;;;;5070237;28;20055;-44
2023/01/07 09:09:28;;;;;;;1.48;1.35;;;10.10;99.90;;;;;;5068834;28;20028;-44
2023/01/07 09:11:54;;;;;;;1.95;1.75;;;10.10;99.90;;;;;;5068487;28;20082;-43
2023/01/07 09:14:20;;;;;;;4.15;2.13;;;10.10;99.90;;;;;;5069400;28;20119;-44
2023/01/07 09:16:45;;;;;;;2.72;1.88;;;10.10;99.90;;;;;;5066070;28;20036;-46
2023/01/07 09:19:11;;;;;;;5.25;2.17;;;10.20;99.90;;;;;;5065478;28;20083;-44
2023/01/07 09:21:37;;;;;;;2.40;1.55;;;10.20;99.90;;;;;;5070604;28;20100;-43
2023/01/07 09:24:02;;;;;;;3.38;2.05;;;10.20;99.90;;;;;;5068933;28;20479;-44
2023/01/07 09:26:28;;;;;;;2.00;1.80;;;10.30;99.90;;;;;;5070035;28;20031;-46
2023/01/07 09:28:54;;;;;;;1.60;1.50;;;10.30;99.90;;;;;;5068986;28;20031;-44
2023/01/07 09:31:20;;;;;;;3.78;1.92;;;10.30;99.90;;;;;;5070738;28;20314;-43
2023/01/07 09:33:46;;;;;;;4.13;1.85;;;10.30;99.90;;;;;;5069524;28;20024;-44
2023/01/07 09:36:11;;;;;;;2.72;1.80;;;10.30;99.90;;;;;;5056399;28;20032;-43
2023/01/07 09:38:37;;;;;;;1.73;1.63;;;10.30;99.90;;;;;;5049939;28;20024;-43
2023/01/07 09:41:03;;;;;;;2.10;1.90;;;10.30;99.90;;;;;;5045624;28;20152;-43
2023/01/07 09:43:37;;;;;;;2.00;1.58;;;10.40;99.90;;;;;;5048115;28;20064;-43
2023/01/07 09:46:07;;;;;;;3.47;1.83;;;10.40;99.90;;;;;;5049181;28;20158;-43
2023/01/07 09:48:41;;;;;;;1.95;1.60;;;10.50;99.90;;;;;;5052141;28;20017;-43
2023/01/07 09:51:37;;;;;;;2.50;1.90;;;10.60;99.90;;;;;;5054531;28;20440;-43
2023/01/07 09:54:05;;;;;;;2.05;1.85;;;10.60;99.90;;;;;;5044336;28;20040;-43
2023/01/07 09:56:35;;;;;;;2.58;1.85;;;10.60;99.90;;;;;;5050148;28;20032;-42
2023/01/07 09:59:03;;;;;;;2.90;1.90;;;10.60;99.90;;;;;;5061439;28;20035;-43
2023/01/07 10:01:45;;;;;;;2.72;1.65;;;10.60;99.90;;;;;;5054080;28;20474;-42
2023/01/07 10:04:38;;;;;;;3.67;2.08;;;10.50;99.90;;;;;;5047367;28;20165;-44
2023/01/07 10:07:12;;;;;;;2.33;1.60;;;10.60;99.90;;;;;;5052008;28;20028;-43
2023/01/07 10:09:53;;;;;;;2.95;2.15;;;10.60;99.90;;;;;;5050965;28;20530;-43
2023/01/07 10:12:47;;;;;;;4.47;1.52;;;10.70;99.90;;;;;;5057111;28;20572;-43
2023/01/07 10:16:01;;;;;;;2.97;1.88;;;10.80;99.90;;;;;;5052032;28;20045;-43
2023/01/07 10:18:35;;;;;;;1.98;1.67;;;10.90;99.90;;;;;;5045960;28;20041;-43
2023/01/07 10:21:01;;;;;;;2.17;1.48;;;11.00;99.90;;;;;;5056047;28;20040;-44
2023/01/07 10:23:31;;;;;;;1.95;1.65;;;11.00;99.90;;;;;;5050385;28;20172;-43
2023/01/07 10:25:59;;;;;;;2.33;1.55;;;11.10;99.90;;;;;;5062445;28;20093;-42
2023/01/07 10:28:40;;;;;;;3.40;1.60;;;11.30;99.90;;;;;;5049388;28;20045;-43
2023/01/07 10:31:20;;;;;;;1.80;1.58;;;11.30;99.90;;;;;;5048761;28;20081;-43
2023/01/07 10:33:47;;;;;;;2.40;1.70;;;11.30;99.90;;;;;;5057710;28;20029;-42
2023/01/07 10:36:19;;;;;;;1.95;1.75;;;11.50;99.90;;;;;;5051600;28;20253;-44
2023/01/07 10:39:13;;;;;;;5.60;2.72;;;11.50;99.90;;;;;;5057271;28;20500;-43
2023/01/07 10:42:12;;;;;;;2.55;1.92;;;11.50;99.90;;;;;;5042781;28;20037;-43
2023/01/07 10:44:50;;;;;;;1.63;1.52;;;11.60;99.90;;;;;;5049682;28;20397;-46
2023/01/07 10:47:57;;;;;;;2.17;1.45;;;12.10;99.90;;;;;;5058487;28;20147;-43
2023/01/07 10:50:44;;;;;;;2.63;1.70;;;12.30;99.90;;;;;;5046662;28;20025;-42
2023/01/07 10:53:30;;;;;;;2.65;1.38;;;12.30;99.90;;;;;;5047889;28;20503;-42
2023/01/07 10:56:31;;;;;;;1.42;1.20;;;12.50;99.90;;;;;;5048923;28;20043;-43
2023/01/07 10:58:56;;;;;;;;;;;12.80;99.90;;;;;;5052016;28;20025;-43
2023/01/07 11:01:27;;;;;;;1.65;1.30;;;12.60;99.90;;;;;;5057894;28;19912;-43
2023/01/07 11:03:55;;;;;;;2.25;1.65;;;12.30;99.90;;;;;;5046751;28;20039;-43
2023/01/07 11:06:44;;;;;;;1.70;1.60;;;12.20;99.90;;;;;;5053384;28;20390;-43
2023/01/07 11:09:30;;;;;;;3.08;1.63;;;12.30;99.90;;;;;;5046482;28;20086;-43
2023/01/07 11:12:00;;;;;;;3.72;1.63;;;12.50;99.90;;;;;;5046450;28;20040;-44
2023/01/07 11:14:33;;;;;;;2.13;1.67;;;13.20;99.90;;;;;;5052766;28;20419;-43
2023/01/07 11:17:30;;;;;;;3.55;1.70;;;13.40;99.90;;;;;;5051156;28;20568;-44
2023/01/07 11:19:56;;;;;;;2.90;1.70;;;13.10;99.90;;;;;;5047316;28;20031;-43
2023/01/07 11:22:37;;;;;;;3.15;1.75;;;13.10;99.90;;;;;;5054990;28;20017;-44
2023/01/07 11:25:23;;;;;;;1.77;1.67;;;13.30;99.90;;;;;;5047614;28;20723;-44
2023/01/07 11:27:49;;;;;;;2.55;1.45;;;13.20;99.90;;;;;;5044272;28;20036;-43
2023/01/07 11:30:26;;;;;;;3.38;1.55;;;13.00;99.90;;;;;;5043000;28;20021;-44
2023/01/07 11:33:00;;;;;;;2.17;1.23;;;12.90;99.90;;;;;;5043872;28;20036;-43
2023/01/07 11:35:29;;;;;;;0.85;0.85;;;12.40;99.90;;;;;;5042547;28;20068;-44
2023/01/07 11:37:56;;;;;;;1.05;1.00;;;12.30;99.90;;;;;;5042930;28;20087;-43
2023/01/07 11:40:31;;;;;;;1.13;1.02;;;12.10;99.90;;;;;;5042969;28;20021;-43
2023/01/07 11:43:16;;;;;;;1.65;1.42;;;12.20;99.90;;;;;;5043456;28;20195;-42
2023/01/07 11:46:03;;;;;;;1.92;1.00;;;12.10;99.90;;;;;;5044836;28;20034;-43
2023/01/07 11:48:30;;;;;;;1.67;1.20;;;12.20;99.90;;;;;;5046141;28;20111;-43
2023/01/07 11:51:01;;;;;;;1.63;1.00;;;12.20;99.90;;;;;;5050060;28;20111;-43
2023/01/07 11:53:55;;;;;;;1.73;1.25;;;12.40;99.90;;;;;;5045097;28;20029;-46
2023/01/07 11:56:27;;;;;;;2.90;1.13;;;12.50;99.90;;;;;;5055005;28;20106;-43
2023/01/07 11:59:14;;;;;;;1.42;0.75;;;12.50;99.90;;;;;;5050697;28;20032;-43
2023/01/07 12:01:47;;;;;;;0.82;0.82;;;12.50;99.90;;;;;;5056465;28;20158;-43
2023/01/07 12:04:22;;;;;;;0.90;0.90;;;12.30;99.90;;;;;;5057275;28;20033;-43
2023/01/07 12:06:53;;;;;;;0.98;0.90;;;12.10;99.90;;;;;;5051802;28;20509;-44
2023/01/07 12:09:25;;;;;;;0.55;0.55;;;12.10;99.90;;;;;;5050570;28;20097;-44
2023/01/07 12:11:53;;;;;;;1.13;0.93;;;12.30;99.90;;;;;;5066285;28;20148;-43
2023/01/07 12:14:44;;;;;;;1.52;0.70;;;12.50;99.90;;;;;;5050722;28;20028;-44
2023/01/07 12:17:21;;;;;;;1.13;0.80;;;12.50;99.90;;;;;;5055320;28;20032;-43
2023/01/07 12:20:11;;;;;;;0.70;0.70;;;12.50;99.90;;;;;;5055243;28;20673;-45
2023/01/07 12:23:21;;;;;;;1.08;0.63;;;12.60;99.90;;;;;;5063379;28;20052;-44
2023/01/07 12:25:55;;;;;;;0.70;0.70;;;12.70;99.90;;;;;;5042294;28;20587;-44
2023/01/07 12:28:47;;;;;;;1.02;0.90;;;12.60;99.90;;;;;;5053166;28;20201;-44
2023/01/07 12:31:39;;;;;;;0.60;0.60;;;12.60;99.90;;;;;;5035348;28;20493;-45
2023/01/07 12:34:16;;;;;;;0.88;0.60;;;12.70;99.90;;;;;;5049498;28;20029;-44
2023/01/07 12:36:51;;;;;;;0.70;0.70;;;12.70;99.90;;;;;;5065049;28;20397;-44
2023/01/07 12:39:34;;;;;;;2.05;0.70;;;12.50;99.90;;;;;;5054342;28;20096;-45
2023/01/07 12:42:12;;;;;;;2.53;0.60;;;12.20;99.90;;;;;;5053406;28;20035;-44
2023/01/07 12:44:46;;;;;;;1.85;0.85;;;12.20;99.90;;;;;;5054808;28;20039;-44
2023/01/07 12:47:23;;;;;;;0.80;0.60;;;12.20;99.90;;;;;;5053195;28;20104;-44
2023/01/07 12:50:03;;;;;;;0.52;0.52;;;12.10;99.90;;;;;;5059775;28;20031;-45
2023/01/07 12:52:35;;;;;;;0.60;0.60;;;12.00;99.90;;;;;;5055600;28;20059;-44
2023/01/07 12:55:29;;;;;;;1.98;0.80;;;12.10;99.90;;;;;;5051333;28;20536;-44
2023/01/07 12:58:12;;;;;;;0.47;0.43;;;12.00;99.90;;;;;;5052238;28;20135;-43
2023/01/07 13:01:04;;;;;;;3.50;0.90;;;12.00;99.90;;;;;;5048452;28;20029;-44
2023/01/07 13:04:00;;;;;;;1.02;0.68;;;11.90;99.90;;;;;;5045445;28;20481;-44
2023/01/07 13:06:41;;;;;;;0.60;0.60;;;11.90;99.90;;;;;;5048901;28;20548;-43
2023/01/07 13:09:21;;;;;;;0.93;0.70;;;11.90;99.90;;;;;;5044048;28;20014;-44
2023/01/07 13:14:46;;;;;;;0.70;0.63;;;11.90;99.90;;;;;;5045892;28;20434;-44
2023/01/07 13:17:15;;;;;;;1.35;0.73;;;11.90;99.90;;;;;;5045474;28;20029;-44